<?xml version="1.0" encoding="UTF-8" standalone="no" ?><gpx xmlns="http://www.topografix.com/GPX/1/1" xmlns:gpxx="http://www.garmin.com/xmlschemas/GpxExtensions/v3" xmlns:wptx1="http://www.garmin.com/xmlschemas/WaypointExtension/v1" xmlns:gpxtpx="http://www.garmin.com/xmlschemas/TrackPointExtension/v1" creator="GuideVTT.com" version="1.1" xmlns:xsi="http://www.w3.org/2001/XMLSchema-instance" xsi:schemaLocation="http://www.topografix.com/GPX/1/1 http://www.topografix.com/GPX/1/1/gpx.xsd http://www.garmin.com/xmlschemas/GpxExtensions/v3 http://www8.garmin.com/xmlschemas/GpxExtensionsv3.xsd http://www.garmin.com/xmlschemas/WaypointExtension/v1 http://www8.garmin.com/xmlschemas/WaypointExtensionv1.xsd http://www.garmin.com/xmlschemas/TrackPointExtension/v1 http://www.garmin.com/xmlschemas/TrackPointExtensionv1.xsd">
<metadata><link href="http://www.garmin.com"><text>Garmin International</text></link><time>2013-06-22T15:13:50Z</time></metadata>
<trk><name>rp2016_08.gpx</name><extensions><gpxx:TrackExtension><gpxx:DisplayColor>Cyan</gpxx:DisplayColor></gpxx:TrackExtension></extensions><trkseg>
<trkpt lat="46.2065" lon="7.43996"><ele>1513.4</ele><time>2016-05-28T15:05:38Z</time></trkpt>
<trkpt lat="46.20649" lon="7.43996"><ele>1512.8</ele><time>2016-05-28T15:05:39Z</time></trkpt>
<trkpt lat="46.20649" lon="7.43995"><ele>1513</ele><time>2016-05-28T15:05:40Z</time></trkpt>
<trkpt lat="46.20653" lon="7.43993"><ele>1511.6</ele><time>2016-05-28T15:05:51Z</time></trkpt>
<trkpt lat="46.20652" lon="7.43992"><ele>1511.6</ele><time>2016-05-28T15:05:58Z</time></trkpt>
<trkpt lat="46.20651" lon="7.43992"><ele>1511.6</ele><time>2016-05-28T15:06:00Z</time></trkpt>
<trkpt lat="46.20652" lon="7.43991"><ele>1511.6</ele><time>2016-05-28T15:06:01Z</time></trkpt>
<trkpt lat="46.20649" lon="7.43991"><ele>1511.2</ele><time>2016-05-28T15:06:07Z</time></trkpt>
<trkpt lat="46.20648" lon="7.43991"><ele>1511.2</ele><time>2016-05-28T15:06:12Z</time></trkpt>
<trkpt lat="46.20646" lon="7.43989"><ele>1511.4</ele><time>2016-05-28T15:06:19Z</time></trkpt>
<trkpt lat="46.20645" lon="7.43988"><ele>1511.4</ele><time>2016-05-28T15:06:24Z</time></trkpt>
<trkpt lat="46.20645" lon="7.43988"><ele>1511.2</ele><time>2016-05-28T15:06:25Z</time></trkpt>
<trkpt lat="46.20644" lon="7.43988"><ele>1510.6</ele><time>2016-05-28T15:06:38Z</time></trkpt>
<trkpt lat="46.20643" lon="7.43988"><ele>1510.6</ele><time>2016-05-28T15:06:39Z</time></trkpt>
<trkpt lat="46.20643" lon="7.43988"><ele>1510.8</ele><time>2016-05-28T15:06:40Z</time></trkpt>
<trkpt lat="46.20644" lon="7.4399"><ele>1510.8</ele><time>2016-05-28T15:06:45Z</time></trkpt>
<trkpt lat="46.20644" lon="7.43989"><ele>1510.6</ele><time>2016-05-28T15:06:47Z</time></trkpt>
<trkpt lat="46.20643" lon="7.43988"><ele>1511</ele><time>2016-05-28T15:06:51Z</time></trkpt>
<trkpt lat="46.20642" lon="7.43987"><ele>1510.8</ele><time>2016-05-28T15:06:57Z</time></trkpt>
<trkpt lat="46.20642" lon="7.43988"><ele>1510.8</ele><time>2016-05-28T15:06:59Z</time></trkpt>
<trkpt lat="46.20646" lon="7.4399"><ele>1510.4</ele><time>2016-05-28T15:07:07Z</time></trkpt>
<trkpt lat="46.20648" lon="7.4399"><ele>1510.4</ele><time>2016-05-28T15:07:10Z</time></trkpt>
<trkpt lat="46.20648" lon="7.4399"><ele>1510.4</ele><time>2016-05-28T15:07:14Z</time></trkpt>
<trkpt lat="46.2065" lon="7.43988"><ele>1510.6</ele><time>2016-05-28T15:07:23Z</time></trkpt>
<trkpt lat="46.2065" lon="7.43989"><ele>1510.8</ele><time>2016-05-28T15:07:27Z</time></trkpt>
<trkpt lat="46.20652" lon="7.4399"><ele>1511</ele><time>2016-05-28T15:07:39Z</time></trkpt>
<trkpt lat="46.20652" lon="7.43991"><ele>1511</ele><time>2016-05-28T15:07:44Z</time></trkpt>
<trkpt lat="46.20652" lon="7.43991"><ele>1510.8</ele><time>2016-05-28T15:07:47Z</time></trkpt>
<trkpt lat="46.20652" lon="7.43991"><ele>1510.8</ele><time>2016-05-28T15:07:48Z</time></trkpt>
<trkpt lat="46.20652" lon="7.43991"><ele>1510.8</ele><time>2016-05-28T15:07:55Z</time></trkpt>
<trkpt lat="46.20653" lon="7.43988"><ele>1510.4</ele><time>2016-05-28T15:08:03Z</time></trkpt>
<trkpt lat="46.2066" lon="7.44011"><ele>1510.2</ele><time>2016-05-28T15:08:12Z</time></trkpt>
<trkpt lat="46.20674" lon="7.44028"><ele>1510.2</ele><time>2016-05-28T15:08:17Z</time></trkpt>
<trkpt lat="46.20691" lon="7.44043"><ele>1510.4</ele><time>2016-05-28T15:08:22Z</time></trkpt>
<trkpt lat="46.20708" lon="7.44053"><ele>1510.2</ele><time>2016-05-28T15:08:26Z</time></trkpt>
<trkpt lat="46.20731" lon="7.44063"><ele>1509.6</ele><time>2016-05-28T15:08:30Z</time></trkpt>
<trkpt lat="46.20752" lon="7.4407"><ele>1509.2</ele><time>2016-05-28T15:08:33Z</time></trkpt>
<trkpt lat="46.20773" lon="7.44069"><ele>1508.8</ele><time>2016-05-28T15:08:35Z</time></trkpt>
<trkpt lat="46.20788" lon="7.44072"><ele>1508.4</ele><time>2016-05-28T15:08:37Z</time></trkpt>
<trkpt lat="46.20796" lon="7.44072"><ele>1508</ele><time>2016-05-28T15:08:38Z</time></trkpt>
<trkpt lat="46.20814" lon="7.44067"><ele>1506.6</ele><time>2016-05-28T15:08:40Z</time></trkpt>
<trkpt lat="46.20831" lon="7.44058"><ele>1505.6</ele><time>2016-05-28T15:08:42Z</time></trkpt>
<trkpt lat="46.20849" lon="7.44048"><ele>1504.4</ele><time>2016-05-28T15:08:44Z</time></trkpt>
<trkpt lat="46.20867" lon="7.44039"><ele>1503</ele><time>2016-05-28T15:08:46Z</time></trkpt>
<trkpt lat="46.2089" lon="7.44028"><ele>1501.6</ele><time>2016-05-28T15:08:49Z</time></trkpt>
<trkpt lat="46.20897" lon="7.44025"><ele>1501</ele><time>2016-05-28T15:08:50Z</time></trkpt>
<trkpt lat="46.20918" lon="7.44032"><ele>1499</ele><time>2016-05-28T15:08:53Z</time></trkpt>
<trkpt lat="46.20941" lon="7.4404"><ele>1498</ele><time>2016-05-28T15:08:56Z</time></trkpt>
<trkpt lat="46.20959" lon="7.44033"><ele>1495.8</ele><time>2016-05-28T15:08:58Z</time></trkpt>
<trkpt lat="46.20977" lon="7.44016"><ele>1494.2</ele><time>2016-05-28T15:09:00Z</time></trkpt>
<trkpt lat="46.20996" lon="7.43999"><ele>1492.2</ele><time>2016-05-28T15:09:02Z</time></trkpt>
<trkpt lat="46.21015" lon="7.43981"><ele>1490</ele><time>2016-05-28T15:09:04Z</time></trkpt>
<trkpt lat="46.21033" lon="7.4396"><ele>1486.4</ele><time>2016-05-28T15:09:06Z</time></trkpt>
<trkpt lat="46.21049" lon="7.43936"><ele>1484.8</ele><time>2016-05-28T15:09:08Z</time></trkpt>
<trkpt lat="46.21065" lon="7.43911"><ele>1483.2</ele><time>2016-05-28T15:09:10Z</time></trkpt>
<trkpt lat="46.21083" lon="7.43893"><ele>1481.4</ele><time>2016-05-28T15:09:12Z</time></trkpt>
<trkpt lat="46.21105" lon="7.43879"><ele>1479.6</ele><time>2016-05-28T15:09:14Z</time></trkpt>
<trkpt lat="46.21126" lon="7.43864"><ele>1477.2</ele><time>2016-05-28T15:09:16Z</time></trkpt>
<trkpt lat="46.21145" lon="7.43844"><ele>1475.2</ele><time>2016-05-28T15:09:18Z</time></trkpt>
<trkpt lat="46.21162" lon="7.4382"><ele>1473.4</ele><time>2016-05-28T15:09:20Z</time></trkpt>
<trkpt lat="46.21176" lon="7.43796"><ele>1472</ele><time>2016-05-28T15:09:22Z</time></trkpt>
<trkpt lat="46.2119" lon="7.43771"><ele>1470</ele><time>2016-05-28T15:09:24Z</time></trkpt>
<trkpt lat="46.21203" lon="7.43747"><ele>1468.2</ele><time>2016-05-28T15:09:26Z</time></trkpt>
<trkpt lat="46.21217" lon="7.43727"><ele>1466.2</ele><time>2016-05-28T15:09:28Z</time></trkpt>
<trkpt lat="46.21223" lon="7.43716"><ele>1465.6</ele><time>2016-05-28T15:09:29Z</time></trkpt>
<trkpt lat="46.21241" lon="7.4369"><ele>1464</ele><time>2016-05-28T15:09:32Z</time></trkpt>
<trkpt lat="46.21258" lon="7.43674"><ele>1465.4</ele><time>2016-05-28T15:09:36Z</time></trkpt>
<trkpt lat="46.21264" lon="7.43668"><ele>1466</ele><time>2016-05-28T15:09:39Z</time></trkpt>
<trkpt lat="46.21273" lon="7.4366"><ele>1467.8</ele><time>2016-05-28T15:09:45Z</time></trkpt>
<trkpt lat="46.21277" lon="7.43656"><ele>1469</ele><time>2016-05-28T15:09:48Z</time></trkpt>
<trkpt lat="46.21281" lon="7.43652"><ele>1470</ele><time>2016-05-28T15:09:51Z</time></trkpt>
<trkpt lat="46.21286" lon="7.43646"><ele>1470.8</ele><time>2016-05-28T15:09:55Z</time></trkpt>
<trkpt lat="46.21287" lon="7.43645"><ele>1471</ele><time>2016-05-28T15:09:56Z</time></trkpt>
<trkpt lat="46.21289" lon="7.43642"><ele>1471.4</ele><time>2016-05-28T15:09:58Z</time></trkpt>
<trkpt lat="46.21291" lon="7.43641"><ele>1471.8</ele><time>2016-05-28T15:09:59Z</time></trkpt>
<trkpt lat="46.21292" lon="7.43639"><ele>1472</ele><time>2016-05-28T15:10:00Z</time></trkpt>
<trkpt lat="46.21293" lon="7.43638"><ele>1472.2</ele><time>2016-05-28T15:10:01Z</time></trkpt>
<trkpt lat="46.21294" lon="7.43636"><ele>1472.4</ele><time>2016-05-28T15:10:02Z</time></trkpt>
<trkpt lat="46.21296" lon="7.43633"><ele>1472.6</ele><time>2016-05-28T15:10:04Z</time></trkpt>
<trkpt lat="46.21304" lon="7.43628"><ele>1473.4</ele><time>2016-05-28T15:10:10Z</time></trkpt>
<trkpt lat="46.21307" lon="7.43627"><ele>1473.6</ele><time>2016-05-28T15:10:12Z</time></trkpt>
<trkpt lat="46.21313" lon="7.4363"><ele>1474.2</ele><time>2016-05-28T15:10:16Z</time></trkpt>
<trkpt lat="46.21318" lon="7.43648"><ele>1475</ele><time>2016-05-28T15:10:25Z</time></trkpt>
<trkpt lat="46.21309" lon="7.43657"><ele>1475.2</ele><time>2016-05-28T15:10:31Z</time></trkpt>
<trkpt lat="46.21293" lon="7.43671"><ele>1475.4</ele><time>2016-05-28T15:10:42Z</time></trkpt>
<trkpt lat="46.2128" lon="7.43691"><ele>1475.8</ele><time>2016-05-28T15:10:54Z</time></trkpt>
<trkpt lat="46.21273" lon="7.43704"><ele>1476</ele><time>2016-05-28T15:11:01Z</time></trkpt>
<trkpt lat="46.21262" lon="7.43727"><ele>1478.4</ele><time>2016-05-28T15:11:14Z</time></trkpt>
<trkpt lat="46.2126" lon="7.43734"><ele>1479</ele><time>2016-05-28T15:11:18Z</time></trkpt>
<trkpt lat="46.21255" lon="7.43746"><ele>1479.6</ele><time>2016-05-28T15:11:25Z</time></trkpt>
<trkpt lat="46.21246" lon="7.43768"><ele>1480.4</ele><time>2016-05-28T15:11:38Z</time></trkpt>
<trkpt lat="46.21227" lon="7.43791"><ele>1482.4</ele><time>2016-05-28T15:11:56Z</time></trkpt>
<trkpt lat="46.21213" lon="7.43808"><ele>1483.6</ele><time>2016-05-28T15:12:12Z</time></trkpt>
<trkpt lat="46.21205" lon="7.43819"><ele>1484.6</ele><time>2016-05-28T15:12:20Z</time></trkpt>
<trkpt lat="46.21195" lon="7.43841"><ele>1485.4</ele><time>2016-05-28T15:12:35Z</time></trkpt>
<trkpt lat="46.21188" lon="7.43858"><ele>1486.2</ele><time>2016-05-28T15:12:45Z</time></trkpt>
<trkpt lat="46.2118" lon="7.4387"><ele>1487.2</ele><time>2016-05-28T15:12:53Z</time></trkpt>
<trkpt lat="46.21169" lon="7.43892"><ele>1489.8</ele><time>2016-05-28T15:13:08Z</time></trkpt>
<trkpt lat="46.21166" lon="7.43899"><ele>1490.4</ele><time>2016-05-28T15:13:12Z</time></trkpt>
<trkpt lat="46.21148" lon="7.43927"><ele>1493.4</ele><time>2016-05-28T15:13:31Z</time></trkpt>
<trkpt lat="46.21133" lon="7.43942"><ele>1495.4</ele><time>2016-05-28T15:13:45Z</time></trkpt>
<trkpt lat="46.21125" lon="7.43949"><ele>1496.2</ele><time>2016-05-28T15:13:52Z</time></trkpt>
<trkpt lat="46.21115" lon="7.43957"><ele>1497.2</ele><time>2016-05-28T15:14:00Z</time></trkpt>
<trkpt lat="46.211" lon="7.43972"><ele>1497.8</ele><time>2016-05-28T15:14:13Z</time></trkpt>
<trkpt lat="46.21085" lon="7.43989"><ele>1499.6</ele><time>2016-05-28T15:14:26Z</time></trkpt>
<trkpt lat="46.21071" lon="7.44007"><ele>1501</ele><time>2016-05-28T15:14:38Z</time></trkpt>
<trkpt lat="46.21057" lon="7.44025"><ele>1502.4</ele><time>2016-05-28T15:14:51Z</time></trkpt>
<trkpt lat="46.21038" lon="7.44049"><ele>1504.8</ele><time>2016-05-28T15:15:08Z</time></trkpt>
<trkpt lat="46.21028" lon="7.44064"><ele>1506</ele><time>2016-05-28T15:15:19Z</time></trkpt>
<trkpt lat="46.21013" lon="7.44081"><ele>1508</ele><time>2016-05-28T15:15:32Z</time></trkpt>
<trkpt lat="46.21005" lon="7.44089"><ele>1509</ele><time>2016-05-28T15:15:39Z</time></trkpt>
<trkpt lat="46.21002" lon="7.44092"><ele>1509</ele><time>2016-05-28T15:15:42Z</time></trkpt>
<trkpt lat="46.20981" lon="7.44106"><ele>1510.2</ele><time>2016-05-28T15:15:59Z</time></trkpt>
<trkpt lat="46.20963" lon="7.44113"><ele>1511.2</ele><time>2016-05-28T15:16:12Z</time></trkpt>
<trkpt lat="46.20944" lon="7.44118"><ele>1513.4</ele><time>2016-05-28T15:16:25Z</time></trkpt>
<trkpt lat="46.20926" lon="7.4412"><ele>1515.6</ele><time>2016-05-28T15:16:38Z</time></trkpt>
<trkpt lat="46.20907" lon="7.44123"><ele>1517.6</ele><time>2016-05-28T15:16:49Z</time></trkpt>
<trkpt lat="46.20896" lon="7.44124"><ele>1518.6</ele><time>2016-05-28T15:16:56Z</time></trkpt>
<trkpt lat="46.20889" lon="7.44126"><ele>1519.2</ele><time>2016-05-28T15:17:01Z</time></trkpt>
<trkpt lat="46.20871" lon="7.4413"><ele>1521.6</ele><time>2016-05-28T15:17:13Z</time></trkpt>
<trkpt lat="46.20852" lon="7.44143"><ele>1522.2</ele><time>2016-05-28T15:17:30Z</time></trkpt>
<trkpt lat="46.20849" lon="7.4415"><ele>1523.4</ele><time>2016-05-28T15:17:37Z</time></trkpt>
<trkpt lat="46.20835" lon="7.44143"><ele>1524.2</ele><time>2016-05-28T15:17:46Z</time></trkpt>
<trkpt lat="46.2083" lon="7.44145"><ele>1524.6</ele><time>2016-05-28T15:17:50Z</time></trkpt>
<trkpt lat="46.20825" lon="7.44145"><ele>1525.2</ele><time>2016-05-28T15:17:54Z</time></trkpt>
<trkpt lat="46.20807" lon="7.44152"><ele>1526.8</ele><time>2016-05-28T15:18:06Z</time></trkpt>
<trkpt lat="46.20789" lon="7.44157"><ele>1528.4</ele><time>2016-05-28T15:18:18Z</time></trkpt>
<trkpt lat="46.2077" lon="7.4416"><ele>1530.4</ele><time>2016-05-28T15:18:30Z</time></trkpt>
<trkpt lat="46.20751" lon="7.44162"><ele>1532.4</ele><time>2016-05-28T15:18:44Z</time></trkpt>
<trkpt lat="46.20744" lon="7.44159"><ele>1533</ele><time>2016-05-28T15:18:50Z</time></trkpt>
<trkpt lat="46.2072" lon="7.44149"><ele>1536.2</ele><time>2016-05-28T15:19:08Z</time></trkpt>
<trkpt lat="46.20702" lon="7.44137"><ele>1538.2</ele><time>2016-05-28T15:19:22Z</time></trkpt>
<trkpt lat="46.20691" lon="7.44129"><ele>1539.6</ele><time>2016-05-28T15:19:31Z</time></trkpt>
<trkpt lat="46.20684" lon="7.44121"><ele>1540.2</ele><time>2016-05-28T15:19:38Z</time></trkpt>
<trkpt lat="46.20669" lon="7.44107"><ele>1541.8</ele><time>2016-05-28T15:19:52Z</time></trkpt>
<trkpt lat="46.20663" lon="7.44102"><ele>1542.2</ele><time>2016-05-28T15:19:57Z</time></trkpt>
<trkpt lat="46.20646" lon="7.44089"><ele>1543.4</ele><time>2016-05-28T15:20:11Z</time></trkpt>
<trkpt lat="46.2063" lon="7.44074"><ele>1546.2</ele><time>2016-05-28T15:20:25Z</time></trkpt>
<trkpt lat="46.20624" lon="7.4407"><ele>1547</ele><time>2016-05-28T15:20:30Z</time></trkpt>
<trkpt lat="46.20615" lon="7.44063"><ele>1547.6</ele><time>2016-05-28T15:20:37Z</time></trkpt>
<trkpt lat="46.20599" lon="7.4405"><ele>1549.8</ele><time>2016-05-28T15:20:49Z</time></trkpt>
<trkpt lat="46.20582" lon="7.44038"><ele>1551.4</ele><time>2016-05-28T15:21:03Z</time></trkpt>
<trkpt lat="46.20565" lon="7.44028"><ele>1553.4</ele><time>2016-05-28T15:21:16Z</time></trkpt>
<trkpt lat="46.20552" lon="7.44021"><ele>1554.8</ele><time>2016-05-28T15:21:25Z</time></trkpt>
<trkpt lat="46.20534" lon="7.4401"><ele>1557</ele><time>2016-05-28T15:21:38Z</time></trkpt>
<trkpt lat="46.20532" lon="7.44008"><ele>1557.2</ele><time>2016-05-28T15:21:40Z</time></trkpt>
<trkpt lat="46.20527" lon="7.44004"><ele>1557.6</ele><time>2016-05-28T15:21:44Z</time></trkpt>
<trkpt lat="46.20511" lon="7.43994"><ele>1560.8</ele><time>2016-05-28T15:21:57Z</time></trkpt>
<trkpt lat="46.20496" lon="7.43985"><ele>1562.4</ele><time>2016-05-28T15:22:08Z</time></trkpt>
<trkpt lat="46.20485" lon="7.43979"><ele>1563.6</ele><time>2016-05-28T15:22:18Z</time></trkpt>
<trkpt lat="46.20481" lon="7.43977"><ele>1564.2</ele><time>2016-05-28T15:22:21Z</time></trkpt>
<trkpt lat="46.20465" lon="7.43967"><ele>1564.8</ele><time>2016-05-28T15:22:31Z</time></trkpt>
<trkpt lat="46.2046" lon="7.43963"><ele>1565.2</ele><time>2016-05-28T15:22:34Z</time></trkpt>
<trkpt lat="46.20446" lon="7.43954"><ele>1566</ele><time>2016-05-28T15:22:44Z</time></trkpt>
<trkpt lat="46.20441" lon="7.43966"><ele>1566.6</ele><time>2016-05-28T15:22:52Z</time></trkpt>
<trkpt lat="46.20453" lon="7.43987"><ele>1569.4</ele><time>2016-05-28T15:23:06Z</time></trkpt>
<trkpt lat="46.20461" lon="7.43995"><ele>1570.8</ele><time>2016-05-28T15:23:15Z</time></trkpt>
<trkpt lat="46.20464" lon="7.43997"><ele>1571.6</ele><time>2016-05-28T15:23:18Z</time></trkpt>
<trkpt lat="46.20467" lon="7.43998"><ele>1572.2</ele><time>2016-05-28T15:23:21Z</time></trkpt>
<trkpt lat="46.20482" lon="7.44007"><ele>1575</ele><time>2016-05-28T15:23:34Z</time></trkpt>
<trkpt lat="46.20487" lon="7.44018"><ele>1575.8</ele><time>2016-05-28T15:23:42Z</time></trkpt>
<trkpt lat="46.20489" lon="7.44021"><ele>1576.4</ele><time>2016-05-28T15:23:44Z</time></trkpt>
<trkpt lat="46.20496" lon="7.4403"><ele>1577</ele><time>2016-05-28T15:23:51Z</time></trkpt>
<trkpt lat="46.20497" lon="7.44032"><ele>1577.2</ele><time>2016-05-28T15:23:52Z</time></trkpt>
<trkpt lat="46.20502" lon="7.44036"><ele>1576.8</ele><time>2016-05-28T15:23:55Z</time></trkpt>
<trkpt lat="46.20504" lon="7.44038"><ele>1576.8</ele><time>2016-05-28T15:23:57Z</time></trkpt>
<trkpt lat="46.20517" lon="7.44047"><ele>1576.4</ele><time>2016-05-28T15:24:07Z</time></trkpt>
<trkpt lat="46.2053" lon="7.44061"><ele>1576.4</ele><time>2016-05-28T15:24:19Z</time></trkpt>
<trkpt lat="46.20543" lon="7.44073"><ele>1576.6</ele><time>2016-05-28T15:24:31Z</time></trkpt>
<trkpt lat="46.20556" lon="7.44092"><ele>1577.6</ele><time>2016-05-28T15:24:46Z</time></trkpt>
<trkpt lat="46.20561" lon="7.441"><ele>1578</ele><time>2016-05-28T15:24:51Z</time></trkpt>
<trkpt lat="46.20563" lon="7.44102"><ele>1578.2</ele><time>2016-05-28T15:24:53Z</time></trkpt>
<trkpt lat="46.20569" lon="7.44117"><ele>1579.6</ele><time>2016-05-28T15:25:02Z</time></trkpt>
<trkpt lat="46.2057" lon="7.44119"><ele>1579.8</ele><time>2016-05-28T15:25:03Z</time></trkpt>
<trkpt lat="46.20572" lon="7.44127"><ele>1580.8</ele><time>2016-05-28T15:25:08Z</time></trkpt>
<trkpt lat="46.20574" lon="7.44142"><ele>1582.4</ele><time>2016-05-28T15:25:18Z</time></trkpt>
<trkpt lat="46.20559" lon="7.44139"><ele>1584.2</ele><time>2016-05-28T15:25:34Z</time></trkpt>
<trkpt lat="46.20541" lon="7.44138"><ele>1586.4</ele><time>2016-05-28T15:25:49Z</time></trkpt>
<trkpt lat="46.20523" lon="7.44132"><ele>1588.2</ele><time>2016-05-28T15:26:05Z</time></trkpt>
<trkpt lat="46.2052" lon="7.44137"><ele>1589.2</ele><time>2016-05-28T15:26:11Z</time></trkpt>
<trkpt lat="46.20519" lon="7.44148"><ele>1591.6</ele><time>2016-05-28T15:26:22Z</time></trkpt>
<trkpt lat="46.20522" lon="7.44153"><ele>1592.6</ele><time>2016-05-28T15:26:28Z</time></trkpt>
<trkpt lat="46.20524" lon="7.4416"><ele>1594</ele><time>2016-05-28T15:26:35Z</time></trkpt>
<trkpt lat="46.20519" lon="7.44168"><ele>1596.2</ele><time>2016-05-28T15:26:45Z</time></trkpt>
<trkpt lat="46.20516" lon="7.44177"><ele>1597.8</ele><time>2016-05-28T15:26:52Z</time></trkpt>
<trkpt lat="46.20521" lon="7.44202"><ele>1603.4</ele><time>2016-05-28T15:27:18Z</time></trkpt>
<trkpt lat="46.20524" lon="7.4422"><ele>1606.2</ele><time>2016-05-28T15:27:34Z</time></trkpt>
<trkpt lat="46.20526" lon="7.44234"><ele>1608.8</ele><time>2016-05-28T15:27:50Z</time></trkpt>
<trkpt lat="46.20522" lon="7.44236"><ele>1610.2</ele><time>2016-05-28T15:27:58Z</time></trkpt>
<trkpt lat="46.20521" lon="7.44236"><ele>1610.6</ele><time>2016-05-28T15:28:00Z</time></trkpt>
<trkpt lat="46.20518" lon="7.44232"><ele>1611.6</ele><time>2016-05-28T15:28:06Z</time></trkpt>
<trkpt lat="46.20505" lon="7.44219"><ele>1615.4</ele><time>2016-05-28T15:28:35Z</time></trkpt>
<trkpt lat="46.205" lon="7.44217"><ele>1615.4</ele><time>2016-05-28T15:28:40Z</time></trkpt>
<trkpt lat="46.20498" lon="7.44213"><ele>1615.4</ele><time>2016-05-28T15:28:45Z</time></trkpt>
<trkpt lat="46.20494" lon="7.44207"><ele>1615.8</ele><time>2016-05-28T15:28:54Z</time></trkpt>
<trkpt lat="46.20491" lon="7.44202"><ele>1616.2</ele><time>2016-05-28T15:28:59Z</time></trkpt>
<trkpt lat="46.20482" lon="7.4419"><ele>1616.6</ele><time>2016-05-28T15:29:07Z</time></trkpt>
<trkpt lat="46.2048" lon="7.44184"><ele>1616.8</ele><time>2016-05-28T15:29:10Z</time></trkpt>
<trkpt lat="46.20463" lon="7.44173"><ele>1617.8</ele><time>2016-05-28T15:29:21Z</time></trkpt>
<trkpt lat="46.20463" lon="7.44173"><ele>1618</ele><time>2016-05-28T15:29:22Z</time></trkpt>
<trkpt lat="46.2046" lon="7.44171"><ele>1618.4</ele><time>2016-05-28T15:29:26Z</time></trkpt>
<trkpt lat="46.20452" lon="7.44166"><ele>1619.4</ele><time>2016-05-28T15:29:33Z</time></trkpt>
<trkpt lat="46.20441" lon="7.44148"><ele>1622</ele><time>2016-05-28T15:29:49Z</time></trkpt>
<trkpt lat="46.2044" lon="7.44147"><ele>1622</ele><time>2016-05-28T15:29:50Z</time></trkpt>
<trkpt lat="46.20439" lon="7.44146"><ele>1622.2</ele><time>2016-05-28T15:29:51Z</time></trkpt>
<trkpt lat="46.20436" lon="7.44141"><ele>1623</ele><time>2016-05-28T15:30:00Z</time></trkpt>
<trkpt lat="46.20431" lon="7.44138"><ele>1623</ele><time>2016-05-28T15:30:10Z</time></trkpt>
<trkpt lat="46.20427" lon="7.44138"><ele>1622.8</ele><time>2016-05-28T15:30:15Z</time></trkpt>
<trkpt lat="46.20417" lon="7.44126"><ele>1623.8</ele><time>2016-05-28T15:30:30Z</time></trkpt>
<trkpt lat="46.20407" lon="7.44119"><ele>1623.2</ele><time>2016-05-28T15:30:54Z</time></trkpt>
<trkpt lat="46.20394" lon="7.44107"><ele>1622.2</ele><time>2016-05-28T15:31:10Z</time></trkpt>
<trkpt lat="46.20392" lon="7.44102"><ele>1622</ele><time>2016-05-28T15:31:14Z</time></trkpt>
<trkpt lat="46.20393" lon="7.44102"><ele>1621.6</ele><time>2016-05-28T15:31:27Z</time></trkpt>
<trkpt lat="46.20394" lon="7.44102"><ele>1621.6</ele><time>2016-05-28T15:31:33Z</time></trkpt>
<trkpt lat="46.20396" lon="7.44101"><ele>1621.4</ele><time>2016-05-28T15:31:40Z</time></trkpt>
<trkpt lat="46.20394" lon="7.441"><ele>1621.4</ele><time>2016-05-28T15:31:45Z</time></trkpt>
<trkpt lat="46.20391" lon="7.44097"><ele>1621.2</ele><time>2016-05-28T15:31:49Z</time></trkpt>
<trkpt lat="46.20387" lon="7.44094"><ele>1621.2</ele><time>2016-05-28T15:31:55Z</time></trkpt>
<trkpt lat="46.2038" lon="7.4409"><ele>1621.2</ele><time>2016-05-28T15:32:02Z</time></trkpt>
<trkpt lat="46.20365" lon="7.44075"><ele>1621.2</ele><time>2016-05-28T15:32:14Z</time></trkpt>
<trkpt lat="46.20354" lon="7.44061"><ele>1621.4</ele><time>2016-05-28T15:32:24Z</time></trkpt>
<trkpt lat="46.20347" lon="7.44054"><ele>1621.8</ele><time>2016-05-28T15:32:28Z</time></trkpt>
<trkpt lat="46.20342" lon="7.44048"><ele>1622.2</ele><time>2016-05-28T15:32:32Z</time></trkpt>
<trkpt lat="46.2034" lon="7.44048"><ele>1622.6</ele><time>2016-05-28T15:32:35Z</time></trkpt>
<trkpt lat="46.2032" lon="7.44043"><ele>1622.8</ele><time>2016-05-28T15:32:49Z</time></trkpt>
<trkpt lat="46.2031" lon="7.4404"><ele>1623.6</ele><time>2016-05-28T15:32:57Z</time></trkpt>
<trkpt lat="46.20307" lon="7.44039"><ele>1624</ele><time>2016-05-28T15:33:00Z</time></trkpt>
<trkpt lat="46.20303" lon="7.44036"><ele>1624.6</ele><time>2016-05-28T15:33:04Z</time></trkpt>
<trkpt lat="46.203" lon="7.44034"><ele>1624.8</ele><time>2016-05-28T15:33:07Z</time></trkpt>
<trkpt lat="46.2029" lon="7.4403"><ele>1625.2</ele><time>2016-05-28T15:33:12Z</time></trkpt>
<trkpt lat="46.20279" lon="7.44029"><ele>1626</ele><time>2016-05-28T15:33:19Z</time></trkpt>
<trkpt lat="46.20264" lon="7.44026"><ele>1627.2</ele><time>2016-05-28T15:33:30Z</time></trkpt>
<trkpt lat="46.20264" lon="7.44017"><ele>1632.6</ele><time>2016-05-28T15:34:01Z</time></trkpt>
<trkpt lat="46.20273" lon="7.44017"><ele>1633.8</ele><time>2016-05-28T15:34:08Z</time></trkpt>
<trkpt lat="46.20288" lon="7.44016"><ele>1634.2</ele><time>2016-05-28T15:34:16Z</time></trkpt>
<trkpt lat="46.20289" lon="7.44017"><ele>1634.2</ele><time>2016-05-28T15:34:17Z</time></trkpt>
<trkpt lat="46.20293" lon="7.4402"><ele>1634.2</ele><time>2016-05-28T15:34:20Z</time></trkpt>
<trkpt lat="46.20296" lon="7.44021"><ele>1634</ele><time>2016-05-28T15:34:22Z</time></trkpt>
<trkpt lat="46.20304" lon="7.44024"><ele>1634.2</ele><time>2016-05-28T15:34:27Z</time></trkpt>
<trkpt lat="46.20319" lon="7.4403"><ele>1633.4</ele><time>2016-05-28T15:34:36Z</time></trkpt>
<trkpt lat="46.20324" lon="7.44035"><ele>1633</ele><time>2016-05-28T15:34:39Z</time></trkpt>
<trkpt lat="46.20326" lon="7.44038"><ele>1633</ele><time>2016-05-28T15:34:40Z</time></trkpt>
<trkpt lat="46.20329" lon="7.44044"><ele>1632.8</ele><time>2016-05-28T15:34:42Z</time></trkpt>
<trkpt lat="46.20337" lon="7.44055"><ele>1631.4</ele><time>2016-05-28T15:34:49Z</time></trkpt>
<trkpt lat="46.20339" lon="7.44057"><ele>1630.8</ele><time>2016-05-28T15:34:51Z</time></trkpt>
<trkpt lat="46.20344" lon="7.44062"><ele>1630.2</ele><time>2016-05-28T15:34:54Z</time></trkpt>
<trkpt lat="46.20349" lon="7.44065"><ele>1629.6</ele><time>2016-05-28T15:34:56Z</time></trkpt>
<trkpt lat="46.20351" lon="7.44066"><ele>1629.8</ele><time>2016-05-28T15:34:57Z</time></trkpt>
<trkpt lat="46.20364" lon="7.44074"><ele>1630.8</ele><time>2016-05-28T15:35:05Z</time></trkpt>
<trkpt lat="46.20369" lon="7.4408"><ele>1630.8</ele><time>2016-05-28T15:35:11Z</time></trkpt>
<trkpt lat="46.20372" lon="7.44084"><ele>1630.6</ele><time>2016-05-28T15:35:13Z</time></trkpt>
<trkpt lat="46.20384" lon="7.44093"><ele>1629.8</ele><time>2016-05-28T15:35:22Z</time></trkpt>
<trkpt lat="46.20385" lon="7.44094"><ele>1629.8</ele><time>2016-05-28T15:35:23Z</time></trkpt>
<trkpt lat="46.20401" lon="7.44108"><ele>1628.6</ele><time>2016-05-28T15:35:31Z</time></trkpt>
<trkpt lat="46.20413" lon="7.44117"><ele>1626.8</ele><time>2016-05-28T15:35:35Z</time></trkpt>
<trkpt lat="46.20427" lon="7.44134"><ele>1623.8</ele><time>2016-05-28T15:35:43Z</time></trkpt>
<trkpt lat="46.2043" lon="7.44138"><ele>1623</ele><time>2016-05-28T15:35:46Z</time></trkpt>
<trkpt lat="46.20431" lon="7.4414"><ele>1622.2</ele><time>2016-05-28T15:35:50Z</time></trkpt>
<trkpt lat="46.20433" lon="7.44142"><ele>1621.2</ele><time>2016-05-28T15:35:53Z</time></trkpt>
<trkpt lat="46.20435" lon="7.44148"><ele>1620.4</ele><time>2016-05-28T15:35:57Z</time></trkpt>
<trkpt lat="46.20436" lon="7.44149"><ele>1620</ele><time>2016-05-28T15:35:58Z</time></trkpt>
<trkpt lat="46.20436" lon="7.44151"><ele>1619.4</ele><time>2016-05-28T15:36:00Z</time></trkpt>
<trkpt lat="46.20448" lon="7.44168"><ele>1617.2</ele><time>2016-05-28T15:36:20Z</time></trkpt>
<trkpt lat="46.20458" lon="7.44189"><ele>1616.8</ele><time>2016-05-28T15:36:34Z</time></trkpt>
<trkpt lat="46.2046" lon="7.44191"><ele>1616.8</ele><time>2016-05-28T15:36:36Z</time></trkpt>
<trkpt lat="46.20466" lon="7.44197"><ele>1617.2</ele><time>2016-05-28T15:36:43Z</time></trkpt>
<trkpt lat="46.20467" lon="7.44198"><ele>1617.2</ele><time>2016-05-28T15:36:44Z</time></trkpt>
<trkpt lat="46.20477" lon="7.44208"><ele>1618</ele><time>2016-05-28T15:36:51Z</time></trkpt>
<trkpt lat="46.20485" lon="7.44214"><ele>1618.8</ele><time>2016-05-28T15:36:57Z</time></trkpt>
<trkpt lat="46.20492" lon="7.44213"><ele>1619.4</ele><time>2016-05-28T15:37:02Z</time></trkpt>
<trkpt lat="46.20498" lon="7.44216"><ele>1619.6</ele><time>2016-05-28T15:37:10Z</time></trkpt>
<trkpt lat="46.20499" lon="7.44221"><ele>1619.8</ele><time>2016-05-28T15:37:14Z</time></trkpt>
<trkpt lat="46.20504" lon="7.4423"><ele>1619.2</ele><time>2016-05-28T15:37:21Z</time></trkpt>
<trkpt lat="46.20507" lon="7.44231"><ele>1619.2</ele><time>2016-05-28T15:37:23Z</time></trkpt>
<trkpt lat="46.20512" lon="7.44214"><ele>1619</ele><time>2016-05-28T15:37:29Z</time></trkpt>
<trkpt lat="46.20509" lon="7.44188"><ele>1619</ele><time>2016-05-28T15:37:37Z</time></trkpt>
<trkpt lat="46.20511" lon="7.44165"><ele>1616.2</ele><time>2016-05-28T15:37:42Z</time></trkpt>
<trkpt lat="46.20522" lon="7.44144"><ele>1612.8</ele><time>2016-05-28T15:37:48Z</time></trkpt>
<trkpt lat="46.20526" lon="7.44138"><ele>1611</ele><time>2016-05-28T15:37:50Z</time></trkpt>
<trkpt lat="46.20529" lon="7.44136"><ele>1610.4</ele><time>2016-05-28T15:37:51Z</time></trkpt>
<trkpt lat="46.20543" lon="7.44136"><ele>1607.4</ele><time>2016-05-28T15:37:55Z</time></trkpt>
<trkpt lat="46.20561" lon="7.44143"><ele>1604.4</ele><time>2016-05-28T15:38:00Z</time></trkpt>
<trkpt lat="46.20566" lon="7.44151"><ele>1601.2</ele><time>2016-05-28T15:38:02Z</time></trkpt>
<trkpt lat="46.20569" lon="7.4416"><ele>1598.2</ele><time>2016-05-28T15:38:06Z</time></trkpt>
<trkpt lat="46.20572" lon="7.44166"><ele>1596</ele><time>2016-05-28T15:38:09Z</time></trkpt>
<trkpt lat="46.20573" lon="7.44171"><ele>1594.6</ele><time>2016-05-28T15:38:12Z</time></trkpt>
<trkpt lat="46.20573" lon="7.44173"><ele>1594.2</ele><time>2016-05-28T15:38:13Z</time></trkpt>
<trkpt lat="46.20574" lon="7.44177"><ele>1593.8</ele><time>2016-05-28T15:38:15Z</time></trkpt>
<trkpt lat="46.20576" lon="7.44196"><ele>1592.6</ele><time>2016-05-28T15:38:25Z</time></trkpt>
<trkpt lat="46.20575" lon="7.44204"><ele>1592.4</ele><time>2016-05-28T15:38:29Z</time></trkpt>
<trkpt lat="46.20575" lon="7.44214"><ele>1592.6</ele><time>2016-05-28T15:38:34Z</time></trkpt>
<trkpt lat="46.20576" lon="7.44225"><ele>1593.8</ele><time>2016-05-28T15:38:40Z</time></trkpt>
<trkpt lat="46.20577" lon="7.44235"><ele>1594.6</ele><time>2016-05-28T15:38:45Z</time></trkpt>
<trkpt lat="46.2058" lon="7.44242"><ele>1595</ele><time>2016-05-28T15:38:49Z</time></trkpt>
<trkpt lat="46.20587" lon="7.44267"><ele>1597.4</ele><time>2016-05-28T15:39:03Z</time></trkpt>
<trkpt lat="46.20595" lon="7.44282"><ele>1598.4</ele><time>2016-05-28T15:39:12Z</time></trkpt>
<trkpt lat="46.20595" lon="7.44283"><ele>1598.4</ele><time>2016-05-28T15:39:13Z</time></trkpt>
<trkpt lat="46.20605" lon="7.44305"><ele>1600.4</ele><time>2016-05-28T15:39:29Z</time></trkpt>
<trkpt lat="46.20607" lon="7.44307"><ele>1600.8</ele><time>2016-05-28T15:39:31Z</time></trkpt>
<trkpt lat="46.20618" lon="7.44326"><ele>1604.2</ele><time>2016-05-28T15:39:47Z</time></trkpt>
<trkpt lat="46.20628" lon="7.44337"><ele>1607</ele><time>2016-05-28T15:39:58Z</time></trkpt>
<trkpt lat="46.20643" lon="7.44352"><ele>1608.2</ele><time>2016-05-28T15:40:14Z</time></trkpt>
<trkpt lat="46.2066" lon="7.44364"><ele>1609</ele><time>2016-05-28T15:40:30Z</time></trkpt>
<trkpt lat="46.20675" lon="7.44374"><ele>1607</ele><time>2016-05-28T15:40:40Z</time></trkpt>
<trkpt lat="46.20689" lon="7.44391"><ele>1606.6</ele><time>2016-05-28T15:40:55Z</time></trkpt>
<trkpt lat="46.20705" lon="7.44409"><ele>1608.4</ele><time>2016-05-28T15:41:14Z</time></trkpt>
<trkpt lat="46.20708" lon="7.44416"><ele>1610</ele><time>2016-05-28T15:41:20Z</time></trkpt>
<trkpt lat="46.2072" lon="7.44435"><ele>1614.4</ele><time>2016-05-28T15:41:36Z</time></trkpt>
<trkpt lat="46.20721" lon="7.44437"><ele>1614.6</ele><time>2016-05-28T15:41:37Z</time></trkpt>
<trkpt lat="46.20733" lon="7.44459"><ele>1616.6</ele><time>2016-05-28T15:41:51Z</time></trkpt>
<trkpt lat="46.20744" lon="7.44476"><ele>1618.8</ele><time>2016-05-28T15:42:03Z</time></trkpt>
<trkpt lat="46.20752" lon="7.44487"><ele>1621.4</ele><time>2016-05-28T15:42:13Z</time></trkpt>
<trkpt lat="46.20759" lon="7.44494"><ele>1623</ele><time>2016-05-28T15:42:19Z</time></trkpt>
<trkpt lat="46.20773" lon="7.44506"><ele>1627.6</ele><time>2016-05-28T15:42:36Z</time></trkpt>
<trkpt lat="46.20774" lon="7.44507"><ele>1627.8</ele><time>2016-05-28T15:42:37Z</time></trkpt>
<trkpt lat="46.20776" lon="7.44508"><ele>1628.2</ele><time>2016-05-28T15:42:39Z</time></trkpt>
<trkpt lat="46.20782" lon="7.44512"><ele>1629</ele><time>2016-05-28T15:42:44Z</time></trkpt>
<trkpt lat="46.20794" lon="7.44518"><ele>1630.4</ele><time>2016-05-28T15:42:53Z</time></trkpt>
<trkpt lat="46.20802" lon="7.44526"><ele>1631.8</ele><time>2016-05-28T15:43:01Z</time></trkpt>
<trkpt lat="46.2081" lon="7.44534"><ele>1633.2</ele><time>2016-05-28T15:43:10Z</time></trkpt>
<trkpt lat="46.20823" lon="7.44544"><ele>1634.2</ele><time>2016-05-28T15:43:22Z</time></trkpt>
<trkpt lat="46.20831" lon="7.44549"><ele>1635</ele><time>2016-05-28T15:43:30Z</time></trkpt>
<trkpt lat="46.20832" lon="7.44549"><ele>1635.2</ele><time>2016-05-28T15:43:31Z</time></trkpt>
<trkpt lat="46.20837" lon="7.44545"><ele>1635.4</ele><time>2016-05-28T15:43:35Z</time></trkpt>
<trkpt lat="46.20838" lon="7.44546"><ele>1635.4</ele><time>2016-05-28T15:43:36Z</time></trkpt>
<trkpt lat="46.2085" lon="7.44552"><ele>1636</ele><time>2016-05-28T15:43:47Z</time></trkpt>
<trkpt lat="46.20854" lon="7.44563"><ele>1636.4</ele><time>2016-05-28T15:43:55Z</time></trkpt>
<trkpt lat="46.2087" lon="7.44574"><ele>1636.8</ele><time>2016-05-28T15:44:10Z</time></trkpt>
<trkpt lat="46.20887" lon="7.44586"><ele>1638.4</ele><time>2016-05-28T15:44:25Z</time></trkpt>
<trkpt lat="46.20902" lon="7.44599"><ele>1639.8</ele><time>2016-05-28T15:44:41Z</time></trkpt>
<trkpt lat="46.2092" lon="7.44607"><ele>1641.8</ele><time>2016-05-28T15:44:57Z</time></trkpt>
<trkpt lat="46.20924" lon="7.44609"><ele>1642.4</ele><time>2016-05-28T15:45:01Z</time></trkpt>
<trkpt lat="46.20934" lon="7.44608"><ele>1644.6</ele><time>2016-05-28T15:45:09Z</time></trkpt>
<trkpt lat="46.20947" lon="7.44602"><ele>1648.6</ele><time>2016-05-28T15:45:21Z</time></trkpt>
<trkpt lat="46.20956" lon="7.44595"><ele>1650</ele><time>2016-05-28T15:45:29Z</time></trkpt>
<trkpt lat="46.20965" lon="7.44589"><ele>1651.2</ele><time>2016-05-28T15:45:38Z</time></trkpt>
<trkpt lat="46.20987" lon="7.44579"><ele>1654</ele><time>2016-05-28T15:45:58Z</time></trkpt>
<trkpt lat="46.20988" lon="7.44578"><ele>1654.2</ele><time>2016-05-28T15:45:59Z</time></trkpt>
<trkpt lat="46.20999" lon="7.44572"><ele>1655.2</ele><time>2016-05-28T15:46:09Z</time></trkpt>
<trkpt lat="46.2101" lon="7.44569"><ele>1656.4</ele><time>2016-05-28T15:46:18Z</time></trkpt>
<trkpt lat="46.21014" lon="7.44567"><ele>1657.4</ele><time>2016-05-28T15:46:23Z</time></trkpt>
<trkpt lat="46.2102" lon="7.44563"><ele>1658.6</ele><time>2016-05-28T15:46:31Z</time></trkpt>
<trkpt lat="46.21031" lon="7.44559"><ele>1661</ele><time>2016-05-28T15:46:41Z</time></trkpt>
<trkpt lat="46.21047" lon="7.44551"><ele>1663.6</ele><time>2016-05-28T15:46:55Z</time></trkpt>
<trkpt lat="46.21052" lon="7.44545"><ele>1664.2</ele><time>2016-05-28T15:47:00Z</time></trkpt>
<trkpt lat="46.21067" lon="7.44533"><ele>1665.4</ele><time>2016-05-28T15:47:15Z</time></trkpt>
<trkpt lat="46.21072" lon="7.44526"><ele>1666</ele><time>2016-05-28T15:47:21Z</time></trkpt>
<trkpt lat="46.2108" lon="7.44523"><ele>1666.2</ele><time>2016-05-28T15:47:28Z</time></trkpt>
<trkpt lat="46.21082" lon="7.44521"><ele>1666.2</ele><time>2016-05-28T15:47:30Z</time></trkpt>
<trkpt lat="46.21083" lon="7.44521"><ele>1666.2</ele><time>2016-05-28T15:47:31Z</time></trkpt>
<trkpt lat="46.21087" lon="7.44523"><ele>1666.8</ele><time>2016-05-28T15:47:35Z</time></trkpt>
<trkpt lat="46.21105" lon="7.44518"><ele>1669</ele><time>2016-05-28T15:47:51Z</time></trkpt>
<trkpt lat="46.21113" lon="7.44517"><ele>1669.2</ele><time>2016-05-28T15:47:58Z</time></trkpt>
<trkpt lat="46.21131" lon="7.44511"><ele>1671.8</ele><time>2016-05-28T15:48:13Z</time></trkpt>
<trkpt lat="46.21148" lon="7.44501"><ele>1675.2</ele><time>2016-05-28T15:48:28Z</time></trkpt>
<trkpt lat="46.2117" lon="7.44507"><ele>1677.2</ele><time>2016-05-28T15:48:47Z</time></trkpt>
<trkpt lat="46.21163" lon="7.44519"><ele>1678.2</ele><time>2016-05-28T15:48:56Z</time></trkpt>
<trkpt lat="46.21158" lon="7.4452"><ele>1679</ele><time>2016-05-28T15:49:00Z</time></trkpt>
<trkpt lat="46.21147" lon="7.44526"><ele>1681</ele><time>2016-05-28T15:49:10Z</time></trkpt>
<trkpt lat="46.21145" lon="7.44528"><ele>1681</ele><time>2016-05-28T15:49:12Z</time></trkpt>
<trkpt lat="46.21141" lon="7.44533"><ele>1681.6</ele><time>2016-05-28T15:49:17Z</time></trkpt>
<trkpt lat="46.2113" lon="7.44539"><ele>1683.4</ele><time>2016-05-28T15:49:31Z</time></trkpt>
<trkpt lat="46.21125" lon="7.44547"><ele>1684.4</ele><time>2016-05-28T15:49:39Z</time></trkpt>
<trkpt lat="46.21114" lon="7.44568"><ele>1686.2</ele><time>2016-05-28T15:49:55Z</time></trkpt>
<trkpt lat="46.21112" lon="7.44574"><ele>1686.4</ele><time>2016-05-28T15:49:59Z</time></trkpt>
<trkpt lat="46.2111" lon="7.44578"><ele>1687</ele><time>2016-05-28T15:50:02Z</time></trkpt>
<trkpt lat="46.21107" lon="7.44581"><ele>1687.4</ele><time>2016-05-28T15:50:05Z</time></trkpt>
<trkpt lat="46.21106" lon="7.44584"><ele>1687.8</ele><time>2016-05-28T15:50:07Z</time></trkpt>
<trkpt lat="46.21102" lon="7.44589"><ele>1688.2</ele><time>2016-05-28T15:50:11Z</time></trkpt>
<trkpt lat="46.21102" lon="7.44592"><ele>1688.4</ele><time>2016-05-28T15:50:13Z</time></trkpt>
<trkpt lat="46.21099" lon="7.44601"><ele>1689.2</ele><time>2016-05-28T15:50:19Z</time></trkpt>
<trkpt lat="46.21097" lon="7.44609"><ele>1689.6</ele><time>2016-05-28T15:50:25Z</time></trkpt>
<trkpt lat="46.21096" lon="7.44613"><ele>1689.8</ele><time>2016-05-28T15:50:28Z</time></trkpt>
<trkpt lat="46.21095" lon="7.44614"><ele>1690</ele><time>2016-05-28T15:50:29Z</time></trkpt>
<trkpt lat="46.21094" lon="7.44618"><ele>1690.6</ele><time>2016-05-28T15:50:32Z</time></trkpt>
<trkpt lat="46.21092" lon="7.44624"><ele>1691.6</ele><time>2016-05-28T15:50:36Z</time></trkpt>
<trkpt lat="46.21091" lon="7.44627"><ele>1692</ele><time>2016-05-28T15:50:38Z</time></trkpt>
<trkpt lat="46.21083" lon="7.44648"><ele>1694.2</ele><time>2016-05-28T15:50:52Z</time></trkpt>
<trkpt lat="46.21079" lon="7.44654"><ele>1695.2</ele><time>2016-05-28T15:50:57Z</time></trkpt>
<trkpt lat="46.21067" lon="7.44667"><ele>1697.4</ele><time>2016-05-28T15:51:10Z</time></trkpt>
<trkpt lat="46.21058" lon="7.44673"><ele>1699</ele><time>2016-05-28T15:51:19Z</time></trkpt>
<trkpt lat="46.21057" lon="7.44674"><ele>1699</ele><time>2016-05-28T15:51:20Z</time></trkpt>
<trkpt lat="46.21042" lon="7.4468"><ele>1702.6</ele><time>2016-05-28T15:51:36Z</time></trkpt>
<trkpt lat="46.21037" lon="7.44683"><ele>1704</ele><time>2016-05-28T15:51:41Z</time></trkpt>
<trkpt lat="46.21026" lon="7.44695"><ele>1707</ele><time>2016-05-28T15:51:54Z</time></trkpt>
<trkpt lat="46.2102" lon="7.44705"><ele>1708.2</ele><time>2016-05-28T15:52:03Z</time></trkpt>
<trkpt lat="46.21012" lon="7.44719"><ele>1710</ele><time>2016-05-28T15:52:14Z</time></trkpt>
<trkpt lat="46.21002" lon="7.44732"><ele>1711</ele><time>2016-05-28T15:52:26Z</time></trkpt>
<trkpt lat="46.20994" lon="7.44747"><ele>1710.4</ele><time>2016-05-28T15:52:37Z</time></trkpt>
<trkpt lat="46.20991" lon="7.44755"><ele>1708.4</ele><time>2016-05-28T15:52:43Z</time></trkpt>
<trkpt lat="46.20978" lon="7.44773"><ele>1707.2</ele><time>2016-05-28T15:52:58Z</time></trkpt>
<trkpt lat="46.20971" lon="7.44778"><ele>1707.2</ele><time>2016-05-28T15:53:03Z</time></trkpt>
<trkpt lat="46.20967" lon="7.44779"><ele>1706.4</ele><time>2016-05-28T15:53:06Z</time></trkpt>
<trkpt lat="46.20964" lon="7.44781"><ele>1706.2</ele><time>2016-05-28T15:53:08Z</time></trkpt>
<trkpt lat="46.20955" lon="7.44784"><ele>1705.2</ele><time>2016-05-28T15:53:15Z</time></trkpt>
<trkpt lat="46.20945" lon="7.44785"><ele>1704.6</ele><time>2016-05-28T15:53:22Z</time></trkpt>
<trkpt lat="46.20925" lon="7.44787"><ele>1703.8</ele><time>2016-05-28T15:53:37Z</time></trkpt>
<trkpt lat="46.20918" lon="7.44786"><ele>1702.4</ele><time>2016-05-28T15:53:42Z</time></trkpt>
<trkpt lat="46.20902" lon="7.44786"><ele>1700.8</ele><time>2016-05-28T15:53:53Z</time></trkpt>
<trkpt lat="46.20893" lon="7.44787"><ele>1700.4</ele><time>2016-05-28T15:54:00Z</time></trkpt>
<trkpt lat="46.20882" lon="7.44795"><ele>1700.6</ele><time>2016-05-28T15:54:09Z</time></trkpt>
<trkpt lat="46.20872" lon="7.448"><ele>1700.2</ele><time>2016-05-28T15:54:16Z</time></trkpt>
<trkpt lat="46.2086" lon="7.44803"><ele>1700</ele><time>2016-05-28T15:54:24Z</time></trkpt>
<trkpt lat="46.20837" lon="7.44804"><ele>1699.4</ele><time>2016-05-28T15:54:39Z</time></trkpt>
<trkpt lat="46.20829" lon="7.44805"><ele>1698.8</ele><time>2016-05-28T15:54:44Z</time></trkpt>
<trkpt lat="46.20811" lon="7.44809"><ele>1697.4</ele><time>2016-05-28T15:54:56Z</time></trkpt>
<trkpt lat="46.20792" lon="7.44813"><ele>1697.6</ele><time>2016-05-28T15:55:07Z</time></trkpt>
<trkpt lat="46.20775" lon="7.44802"><ele>1698.6</ele><time>2016-05-28T15:55:20Z</time></trkpt>
<trkpt lat="46.20757" lon="7.44795"><ele>1699.2</ele><time>2016-05-28T15:55:32Z</time></trkpt>
<trkpt lat="46.2074" lon="7.4479"><ele>1700.2</ele><time>2016-05-28T15:55:44Z</time></trkpt>
<trkpt lat="46.2073" lon="7.44788"><ele>1701.2</ele><time>2016-05-28T15:55:51Z</time></trkpt>
<trkpt lat="46.20722" lon="7.44788"><ele>1702.8</ele><time>2016-05-28T15:55:59Z</time></trkpt>
<trkpt lat="46.20724" lon="7.4479"><ele>1705</ele><time>2016-05-28T15:56:10Z</time></trkpt>
<trkpt lat="46.20725" lon="7.44792"><ele>1706.6</ele><time>2016-05-28T15:56:22Z</time></trkpt>
<trkpt lat="46.20728" lon="7.44799"><ele>1708.6</ele><time>2016-05-28T15:56:45Z</time></trkpt>
<trkpt lat="46.20727" lon="7.448"><ele>1708.6</ele><time>2016-05-28T15:56:47Z</time></trkpt>
<trkpt lat="46.20725" lon="7.448"><ele>1708.8</ele><time>2016-05-28T15:56:49Z</time></trkpt>
<trkpt lat="46.20724" lon="7.448"><ele>1709</ele><time>2016-05-28T15:56:51Z</time></trkpt>
<trkpt lat="46.20724" lon="7.44802"><ele>1709.6</ele><time>2016-05-28T15:57:19Z</time></trkpt>
<trkpt lat="46.20724" lon="7.44802"><ele>1709.6</ele><time>2016-05-28T15:57:20Z</time></trkpt>
<trkpt lat="46.20724" lon="7.44802"><ele>1709.8</ele><time>2016-05-28T15:57:26Z</time></trkpt>
<trkpt lat="46.20726" lon="7.44803"><ele>1710</ele><time>2016-05-28T15:57:32Z</time></trkpt>
<trkpt lat="46.20727" lon="7.44801"><ele>1710.2</ele><time>2016-05-28T15:57:47Z</time></trkpt>
<trkpt lat="46.20729" lon="7.44799"><ele>1709.8</ele><time>2016-05-28T15:57:54Z</time></trkpt>
<trkpt lat="46.20731" lon="7.44798"><ele>1709.6</ele><time>2016-05-28T15:57:59Z</time></trkpt>
<trkpt lat="46.20729" lon="7.44788"><ele>1709.4</ele><time>2016-05-28T15:58:09Z</time></trkpt>
<trkpt lat="46.2073" lon="7.44788"><ele>1708.6</ele><time>2016-05-28T15:58:22Z</time></trkpt>
<trkpt lat="46.2073" lon="7.44792"><ele>1707.6</ele><time>2016-05-28T15:58:33Z</time></trkpt>
<trkpt lat="46.20731" lon="7.44791"><ele>1707.6</ele><time>2016-05-28T15:58:38Z</time></trkpt>
<trkpt lat="46.20731" lon="7.44794"><ele>1707.2</ele><time>2016-05-28T15:58:47Z</time></trkpt>
<trkpt lat="46.2073" lon="7.44794"><ele>1707.2</ele><time>2016-05-28T15:58:50Z</time></trkpt>
<trkpt lat="46.20726" lon="7.44793"><ele>1707.4</ele><time>2016-05-28T15:58:55Z</time></trkpt>
<trkpt lat="46.20725" lon="7.44793"><ele>1708</ele><time>2016-05-28T15:59:00Z</time></trkpt>
<trkpt lat="46.20726" lon="7.44792"><ele>1708.2</ele><time>2016-05-28T15:59:07Z</time></trkpt>
<trkpt lat="46.20728" lon="7.44793"><ele>1709.4</ele><time>2016-05-28T15:59:28Z</time></trkpt>
<trkpt lat="46.20728" lon="7.44792"><ele>1709.6</ele><time>2016-05-28T15:59:32Z</time></trkpt>
<trkpt lat="46.20726" lon="7.44794"><ele>1710</ele><time>2016-05-28T15:59:46Z</time></trkpt>
<trkpt lat="46.20747" lon="7.44793"><ele>1709.8</ele><time>2016-05-28T15:59:56Z</time></trkpt>
<trkpt lat="46.2076" lon="7.44796"><ele>1709.2</ele><time>2016-05-28T16:00:00Z</time></trkpt>
<trkpt lat="46.20763" lon="7.44797"><ele>1709.2</ele><time>2016-05-28T16:00:01Z</time></trkpt>
<trkpt lat="46.20777" lon="7.44803"><ele>1707.8</ele><time>2016-05-28T16:00:06Z</time></trkpt>
<trkpt lat="46.20776" lon="7.44787"><ele>1705.2</ele><time>2016-05-28T16:00:12Z</time></trkpt>
<trkpt lat="46.20772" lon="7.44781"><ele>1703.4</ele><time>2016-05-28T16:00:14Z</time></trkpt>
<trkpt lat="46.20768" lon="7.44776"><ele>1702.6</ele><time>2016-05-28T16:00:16Z</time></trkpt>
<trkpt lat="46.20767" lon="7.44774"><ele>1702.2</ele><time>2016-05-28T16:00:17Z</time></trkpt>
<trkpt lat="46.20766" lon="7.44772"><ele>1702</ele><time>2016-05-28T16:00:18Z</time></trkpt>
<trkpt lat="46.20765" lon="7.44763"><ele>1700.4</ele><time>2016-05-28T16:00:21Z</time></trkpt>
<trkpt lat="46.20762" lon="7.44752"><ele>1698.2</ele><time>2016-05-28T16:00:24Z</time></trkpt>
<trkpt lat="46.20747" lon="7.44738"><ele>1697</ele><time>2016-05-28T16:00:31Z</time></trkpt>
<trkpt lat="46.20746" lon="7.44737"><ele>1696.8</ele><time>2016-05-28T16:00:32Z</time></trkpt>
<trkpt lat="46.20745" lon="7.44736"><ele>1696.6</ele><time>2016-05-28T16:00:33Z</time></trkpt>
<trkpt lat="46.2074" lon="7.44733"><ele>1695.6</ele><time>2016-05-28T16:00:37Z</time></trkpt>
<trkpt lat="46.20735" lon="7.44734"><ele>1693.4</ele><time>2016-05-28T16:00:43Z</time></trkpt>
<trkpt lat="46.20717" lon="7.44738"><ele>1691</ele><time>2016-05-28T16:00:59Z</time></trkpt>
<trkpt lat="46.20714" lon="7.44738"><ele>1690.6</ele><time>2016-05-28T16:01:01Z</time></trkpt>
<trkpt lat="46.20695" lon="7.44735"><ele>1688.6</ele><time>2016-05-28T16:01:16Z</time></trkpt>
<trkpt lat="46.20687" lon="7.44734"><ele>1688.4</ele><time>2016-05-28T16:01:26Z</time></trkpt>
<trkpt lat="46.20672" lon="7.44733"><ele>1688.4</ele><time>2016-05-28T16:01:36Z</time></trkpt>
<trkpt lat="46.20659" lon="7.44731"><ele>1688.4</ele><time>2016-05-28T16:01:43Z</time></trkpt>
<trkpt lat="46.20654" lon="7.44727"><ele>1688.4</ele><time>2016-05-28T16:01:46Z</time></trkpt>
<trkpt lat="46.20648" lon="7.44722"><ele>1688.2</ele><time>2016-05-28T16:01:51Z</time></trkpt>
<trkpt lat="46.20633" lon="7.44708"><ele>1688</ele><time>2016-05-28T16:02:05Z</time></trkpt>
<trkpt lat="46.20632" lon="7.44706"><ele>1688</ele><time>2016-05-28T16:02:06Z</time></trkpt>
<trkpt lat="46.20617" lon="7.44688"><ele>1688.4</ele><time>2016-05-28T16:02:15Z</time></trkpt>
<trkpt lat="46.20608" lon="7.44684"><ele>1688.4</ele><time>2016-05-28T16:02:21Z</time></trkpt>
<trkpt lat="46.20606" lon="7.44684"><ele>1688.4</ele><time>2016-05-28T16:02:22Z</time></trkpt>
<trkpt lat="46.206" lon="7.4468"><ele>1688.4</ele><time>2016-05-28T16:02:25Z</time></trkpt>
<trkpt lat="46.20597" lon="7.44679"><ele>1688.2</ele><time>2016-05-28T16:02:26Z</time></trkpt>
<trkpt lat="46.2059" lon="7.44678"><ele>1687.8</ele><time>2016-05-28T16:02:30Z</time></trkpt>
<trkpt lat="46.2058" lon="7.44676"><ele>1687</ele><time>2016-05-28T16:02:41Z</time></trkpt>
<trkpt lat="46.20563" lon="7.44676"><ele>1687.2</ele><time>2016-05-28T16:02:58Z</time></trkpt>
<trkpt lat="46.20563" lon="7.44676"><ele>1687.4</ele><time>2016-05-28T16:03:00Z</time></trkpt>
<trkpt lat="46.20557" lon="7.44674"><ele>1688</ele><time>2016-05-28T16:03:05Z</time></trkpt>
<trkpt lat="46.20556" lon="7.44674"><ele>1688</ele><time>2016-05-28T16:03:06Z</time></trkpt>
<trkpt lat="46.20551" lon="7.4467"><ele>1688.8</ele><time>2016-05-28T16:03:26Z</time></trkpt>
<trkpt lat="46.20552" lon="7.44671"><ele>1688.8</ele><time>2016-05-28T16:03:30Z</time></trkpt>
<trkpt lat="46.20555" lon="7.44676"><ele>1688.4</ele><time>2016-05-28T16:03:36Z</time></trkpt>
<trkpt lat="46.20555" lon="7.44676"><ele>1688</ele><time>2016-05-28T16:03:39Z</time></trkpt>
<trkpt lat="46.20564" lon="7.44675"><ele>1689.2</ele><time>2016-05-28T16:03:56Z</time></trkpt>
<trkpt lat="46.20561" lon="7.44678"><ele>1689.4</ele><time>2016-05-28T16:04:08Z</time></trkpt>
<trkpt lat="46.2055" lon="7.44667"><ele>1690.2</ele><time>2016-05-28T16:04:28Z</time></trkpt>
<trkpt lat="46.20542" lon="7.44655"><ele>1690.4</ele><time>2016-05-28T16:04:33Z</time></trkpt>
<trkpt lat="46.2054" lon="7.44651"><ele>1690.2</ele><time>2016-05-28T16:04:36Z</time></trkpt>
<trkpt lat="46.20538" lon="7.44642"><ele>1689</ele><time>2016-05-28T16:04:41Z</time></trkpt>
<trkpt lat="46.20537" lon="7.4464"><ele>1689</ele><time>2016-05-28T16:04:42Z</time></trkpt>
<trkpt lat="46.2053" lon="7.44634"><ele>1688.8</ele><time>2016-05-28T16:04:45Z</time></trkpt>
<trkpt lat="46.20527" lon="7.44631"><ele>1688.6</ele><time>2016-05-28T16:04:46Z</time></trkpt>
<trkpt lat="46.20525" lon="7.44629"><ele>1688.6</ele><time>2016-05-28T16:04:47Z</time></trkpt>
<trkpt lat="46.20524" lon="7.44628"><ele>1688.8</ele><time>2016-05-28T16:04:48Z</time></trkpt>
<trkpt lat="46.20518" lon="7.44622"><ele>1688.6</ele><time>2016-05-28T16:04:57Z</time></trkpt>
<trkpt lat="46.20512" lon="7.44616"><ele>1688.8</ele><time>2016-05-28T16:05:01Z</time></trkpt>
<trkpt lat="46.20511" lon="7.44616"><ele>1689</ele><time>2016-05-28T16:05:06Z</time></trkpt>
<trkpt lat="46.20509" lon="7.44612"><ele>1688.8</ele><time>2016-05-28T16:05:14Z</time></trkpt>
<trkpt lat="46.20508" lon="7.44609"><ele>1688.6</ele><time>2016-05-28T16:05:18Z</time></trkpt>
<trkpt lat="46.20507" lon="7.44608"><ele>1688.4</ele><time>2016-05-28T16:05:20Z</time></trkpt>
<trkpt lat="46.20507" lon="7.44606"><ele>1687.8</ele><time>2016-05-28T16:05:28Z</time></trkpt>
<trkpt lat="46.20507" lon="7.44606"><ele>1688</ele><time>2016-05-28T16:05:35Z</time></trkpt>
<trkpt lat="46.20506" lon="7.44607"><ele>1687.8</ele><time>2016-05-28T16:05:40Z</time></trkpt>
<trkpt lat="46.20502" lon="7.44604"><ele>1688.4</ele><time>2016-05-28T16:05:49Z</time></trkpt>
<trkpt lat="46.20499" lon="7.44594"><ele>1688.2</ele><time>2016-05-28T16:05:58Z</time></trkpt>
<trkpt lat="46.20491" lon="7.44575"><ele>1688</ele><time>2016-05-28T16:06:06Z</time></trkpt>
<trkpt lat="46.20485" lon="7.44568"><ele>1687.6</ele><time>2016-05-28T16:06:11Z</time></trkpt>
<trkpt lat="46.20473" lon="7.44555"><ele>1687.4</ele><time>2016-05-28T16:06:25Z</time></trkpt>
<trkpt lat="46.20459" lon="7.44538"><ele>1686.6</ele><time>2016-05-28T16:06:39Z</time></trkpt>
<trkpt lat="46.2044" lon="7.44518"><ele>1684.8</ele><time>2016-05-28T16:06:57Z</time></trkpt>
<trkpt lat="46.2044" lon="7.44515"><ele>1684.2</ele><time>2016-05-28T16:07:03Z</time></trkpt>
<trkpt lat="46.20438" lon="7.44513"><ele>1684.4</ele><time>2016-05-28T16:07:16Z</time></trkpt>
<trkpt lat="46.20441" lon="7.44514"><ele>1684</ele><time>2016-05-28T16:07:22Z</time></trkpt>
<trkpt lat="46.20443" lon="7.44517"><ele>1683.8</ele><time>2016-05-28T16:07:24Z</time></trkpt>
<trkpt lat="46.20448" lon="7.44523"><ele>1684.2</ele><time>2016-05-28T16:07:28Z</time></trkpt>
<trkpt lat="46.20452" lon="7.44527"><ele>1684</ele><time>2016-05-28T16:07:33Z</time></trkpt>
<trkpt lat="46.20463" lon="7.44543"><ele>1684.2</ele><time>2016-05-28T16:07:43Z</time></trkpt>
<trkpt lat="46.20465" lon="7.44549"><ele>1684.2</ele><time>2016-05-28T16:07:46Z</time></trkpt>
<trkpt lat="46.20463" lon="7.44548"><ele>1684.4</ele><time>2016-05-28T16:07:51Z</time></trkpt>
<trkpt lat="46.20461" lon="7.44545"><ele>1684.4</ele><time>2016-05-28T16:07:54Z</time></trkpt>
<trkpt lat="46.20447" lon="7.4453"><ele>1684.6</ele><time>2016-05-28T16:08:06Z</time></trkpt>
<trkpt lat="46.20444" lon="7.44528"><ele>1684.6</ele><time>2016-05-28T16:08:10Z</time></trkpt>
<trkpt lat="46.20437" lon="7.44521"><ele>1685.2</ele><time>2016-05-28T16:08:16Z</time></trkpt>
<trkpt lat="46.20429" lon="7.44512"><ele>1685.8</ele><time>2016-05-28T16:08:28Z</time></trkpt>
<trkpt lat="46.20426" lon="7.44507"><ele>1686</ele><time>2016-05-28T16:08:31Z</time></trkpt>
<trkpt lat="46.20424" lon="7.44505"><ele>1686.2</ele><time>2016-05-28T16:08:32Z</time></trkpt>
<trkpt lat="46.20409" lon="7.44488"><ele>1687.4</ele><time>2016-05-28T16:08:43Z</time></trkpt>
<trkpt lat="46.20396" lon="7.4447"><ele>1688.4</ele><time>2016-05-28T16:08:57Z</time></trkpt>
<trkpt lat="46.20393" lon="7.44464"><ele>1688.6</ele><time>2016-05-28T16:08:59Z</time></trkpt>
<trkpt lat="46.2039" lon="7.44461"><ele>1688.8</ele><time>2016-05-28T16:09:00Z</time></trkpt>
<trkpt lat="46.20387" lon="7.44459"><ele>1688.8</ele><time>2016-05-28T16:09:02Z</time></trkpt>
<trkpt lat="46.20384" lon="7.44456"><ele>1688.8</ele><time>2016-05-28T16:09:04Z</time></trkpt>
<trkpt lat="46.20378" lon="7.44451"><ele>1688.4</ele><time>2016-05-28T16:09:10Z</time></trkpt>
<trkpt lat="46.20374" lon="7.44446"><ele>1688</ele><time>2016-05-28T16:09:18Z</time></trkpt>
<trkpt lat="46.20372" lon="7.44442"><ele>1688.2</ele><time>2016-05-28T16:09:22Z</time></trkpt>
<trkpt lat="46.20366" lon="7.44434"><ele>1688.6</ele><time>2016-05-28T16:09:31Z</time></trkpt>
<trkpt lat="46.20362" lon="7.44424"><ele>1688.8</ele><time>2016-05-28T16:09:40Z</time></trkpt>
<trkpt lat="46.2036" lon="7.4442"><ele>1688.8</ele><time>2016-05-28T16:09:43Z</time></trkpt>
<trkpt lat="46.20348" lon="7.44397"><ele>1690</ele><time>2016-05-28T16:09:57Z</time></trkpt>
<trkpt lat="46.20337" lon="7.44371"><ele>1689.2</ele><time>2016-05-28T16:10:06Z</time></trkpt>
<trkpt lat="46.20332" lon="7.44355"><ele>1688.2</ele><time>2016-05-28T16:10:13Z</time></trkpt>
<trkpt lat="46.20321" lon="7.44337"><ele>1687.8</ele><time>2016-05-28T16:10:24Z</time></trkpt>
<trkpt lat="46.20319" lon="7.44332"><ele>1687.4</ele><time>2016-05-28T16:10:26Z</time></trkpt>
<trkpt lat="46.20318" lon="7.44319"><ele>1686.8</ele><time>2016-05-28T16:10:30Z</time></trkpt>
<trkpt lat="46.20314" lon="7.44311"><ele>1686.6</ele><time>2016-05-28T16:10:33Z</time></trkpt>
<trkpt lat="46.20308" lon="7.44299"><ele>1685.6</ele><time>2016-05-28T16:10:39Z</time></trkpt>
<trkpt lat="46.20304" lon="7.44286"><ele>1684.6</ele><time>2016-05-28T16:10:44Z</time></trkpt>
<trkpt lat="46.203" lon="7.44279"><ele>1683.8</ele><time>2016-05-28T16:10:47Z</time></trkpt>
<trkpt lat="46.20285" lon="7.44255"><ele>1683.2</ele><time>2016-05-28T16:10:57Z</time></trkpt>
<trkpt lat="46.20285" lon="7.4425"><ele>1683.2</ele><time>2016-05-28T16:10:59Z</time></trkpt>
<trkpt lat="46.20285" lon="7.44229"><ele>1682.2</ele><time>2016-05-28T16:11:07Z</time></trkpt>
<trkpt lat="46.20282" lon="7.44225"><ele>1681.6</ele><time>2016-05-28T16:11:17Z</time></trkpt>
<trkpt lat="46.20291" lon="7.44233"><ele>1681.4</ele><time>2016-05-28T16:11:21Z</time></trkpt>
<trkpt lat="46.20302" lon="7.44243"><ele>1681</ele><time>2016-05-28T16:11:26Z</time></trkpt>
<trkpt lat="46.20314" lon="7.44249"><ele>1680.4</ele><time>2016-05-28T16:11:31Z</time></trkpt>
<trkpt lat="46.20337" lon="7.44274"><ele>1678.4</ele><time>2016-05-28T16:11:39Z</time></trkpt>
<trkpt lat="46.20351" lon="7.44295"><ele>1677</ele><time>2016-05-28T16:11:44Z</time></trkpt>
<trkpt lat="46.20369" lon="7.44305"><ele>1674.6</ele><time>2016-05-28T16:11:50Z</time></trkpt>
<trkpt lat="46.20378" lon="7.44312"><ele>1673.8</ele><time>2016-05-28T16:11:52Z</time></trkpt>
<trkpt lat="46.20395" lon="7.4433"><ele>1672</ele><time>2016-05-28T16:11:55Z</time></trkpt>
<trkpt lat="46.20401" lon="7.44337"><ele>1671.6</ele><time>2016-05-28T16:11:56Z</time></trkpt>
<trkpt lat="46.2042" lon="7.44365"><ele>1671.2</ele><time>2016-05-28T16:11:59Z</time></trkpt>
<trkpt lat="46.2043" lon="7.44387"><ele>1670.8</ele><time>2016-05-28T16:12:01Z</time></trkpt>
<trkpt lat="46.20441" lon="7.44408"><ele>1670.4</ele><time>2016-05-28T16:12:03Z</time></trkpt>
<trkpt lat="46.20453" lon="7.44424"><ele>1670</ele><time>2016-05-28T16:12:05Z</time></trkpt>
<trkpt lat="46.20469" lon="7.44432"><ele>1669.6</ele><time>2016-05-28T16:12:07Z</time></trkpt>
<trkpt lat="46.20488" lon="7.4444"><ele>1668.4</ele><time>2016-05-28T16:12:09Z</time></trkpt>
<trkpt lat="46.20506" lon="7.44452"><ele>1667.8</ele><time>2016-05-28T16:12:11Z</time></trkpt>
<trkpt lat="46.20522" lon="7.4446"><ele>1667.6</ele><time>2016-05-28T16:12:13Z</time></trkpt>
<trkpt lat="46.20542" lon="7.4446"><ele>1667</ele><time>2016-05-28T16:12:15Z</time></trkpt>
<trkpt lat="46.20552" lon="7.44457"><ele>1666.8</ele><time>2016-05-28T16:12:16Z</time></trkpt>
<trkpt lat="46.20562" lon="7.44455"><ele>1666.8</ele><time>2016-05-28T16:12:17Z</time></trkpt>
<trkpt lat="46.20581" lon="7.44452"><ele>1665.8</ele><time>2016-05-28T16:12:19Z</time></trkpt>
<trkpt lat="46.20602" lon="7.44449"><ele>1664.4</ele><time>2016-05-28T16:12:21Z</time></trkpt>
<trkpt lat="46.20621" lon="7.44445"><ele>1662.6</ele><time>2016-05-28T16:12:23Z</time></trkpt>
<trkpt lat="46.20642" lon="7.44441"><ele>1660</ele><time>2016-05-28T16:12:26Z</time></trkpt>
<trkpt lat="46.2066" lon="7.44439"><ele>1657.8</ele><time>2016-05-28T16:12:29Z</time></trkpt>
<trkpt lat="46.20666" lon="7.44439"><ele>1656.6</ele><time>2016-05-28T16:12:30Z</time></trkpt>
<trkpt lat="46.20676" lon="7.4444"><ele>1654.6</ele><time>2016-05-28T16:12:32Z</time></trkpt>
<trkpt lat="46.20694" lon="7.44445"><ele>1650.6</ele><time>2016-05-28T16:12:35Z</time></trkpt>
<trkpt lat="46.207" lon="7.44448"><ele>1649</ele><time>2016-05-28T16:12:36Z</time></trkpt>
<trkpt lat="46.20716" lon="7.44471"><ele>1641.8</ele><time>2016-05-28T16:12:40Z</time></trkpt>
<trkpt lat="46.2072" lon="7.44475"><ele>1641</ele><time>2016-05-28T16:12:41Z</time></trkpt>
<trkpt lat="46.20733" lon="7.44466"><ele>1626.8</ele><time>2016-05-28T16:12:47Z</time></trkpt>
<trkpt lat="46.20721" lon="7.4444"><ele>1623.6</ele><time>2016-05-28T16:12:51Z</time></trkpt>
<trkpt lat="46.20707" lon="7.44415"><ele>1621.6</ele><time>2016-05-28T16:12:54Z</time></trkpt>
<trkpt lat="46.20701" lon="7.44406"><ele>1620.8</ele><time>2016-05-28T16:12:55Z</time></trkpt>
<trkpt lat="46.20687" lon="7.44388"><ele>1619.2</ele><time>2016-05-28T16:12:57Z</time></trkpt>
<trkpt lat="46.2067" lon="7.44371"><ele>1616.8</ele><time>2016-05-28T16:12:59Z</time></trkpt>
<trkpt lat="46.20651" lon="7.44355"><ele>1614.6</ele><time>2016-05-28T16:13:01Z</time></trkpt>
<trkpt lat="46.2063" lon="7.4434"><ele>1612.6</ele><time>2016-05-28T16:13:03Z</time></trkpt>
<trkpt lat="46.2062" lon="7.44331"><ele>1611.6</ele><time>2016-05-28T16:13:04Z</time></trkpt>
<trkpt lat="46.20603" lon="7.44308"><ele>1609.8</ele><time>2016-05-28T16:13:06Z</time></trkpt>
<trkpt lat="46.20588" lon="7.44283"><ele>1608.2</ele><time>2016-05-28T16:13:08Z</time></trkpt>
<trkpt lat="46.20579" lon="7.44252"><ele>1606.6</ele><time>2016-05-28T16:13:10Z</time></trkpt>
<trkpt lat="46.20576" lon="7.44217"><ele>1605</ele><time>2016-05-28T16:13:12Z</time></trkpt>
<trkpt lat="46.20575" lon="7.44184"><ele>1602.6</ele><time>2016-05-28T16:13:14Z</time></trkpt>
<trkpt lat="46.20571" lon="7.44151"><ele>1598.8</ele><time>2016-05-28T16:13:16Z</time></trkpt>
<trkpt lat="46.20568" lon="7.44136"><ele>1597.2</ele><time>2016-05-28T16:13:17Z</time></trkpt>
<trkpt lat="46.20559" lon="7.44107"><ele>1595</ele><time>2016-05-28T16:13:19Z</time></trkpt>
<trkpt lat="46.20545" lon="7.44081"><ele>1591</ele><time>2016-05-28T16:13:21Z</time></trkpt>
<trkpt lat="46.20527" lon="7.44058"><ele>1588</ele><time>2016-05-28T16:13:23Z</time></trkpt>
<trkpt lat="46.20517" lon="7.44048"><ele>1586.2</ele><time>2016-05-28T16:13:24Z</time></trkpt>
<trkpt lat="46.20496" lon="7.44028"><ele>1582.8</ele><time>2016-05-28T16:13:26Z</time></trkpt>
<trkpt lat="46.20476" lon="7.44008"><ele>1579.4</ele><time>2016-05-28T16:13:28Z</time></trkpt>
<trkpt lat="46.20458" lon="7.43991"><ele>1576.6</ele><time>2016-05-28T16:13:30Z</time></trkpt>
<trkpt lat="46.20439" lon="7.43971"><ele>1574.8</ele><time>2016-05-28T16:13:33Z</time></trkpt>
<trkpt lat="46.2045" lon="7.43958"><ele>1568.4</ele><time>2016-05-28T16:13:37Z</time></trkpt>
<trkpt lat="46.20467" lon="7.43969"><ele>1565.4</ele><time>2016-05-28T16:13:40Z</time></trkpt>
<trkpt lat="46.20485" lon="7.4398"><ele>1563.2</ele><time>2016-05-28T16:13:43Z</time></trkpt>
<trkpt lat="46.20507" lon="7.43991"><ele>1560.6</ele><time>2016-05-28T16:13:46Z</time></trkpt>
<trkpt lat="46.20527" lon="7.44006"><ele>1558</ele><time>2016-05-28T16:13:49Z</time></trkpt>
<trkpt lat="46.20548" lon="7.4402"><ele>1556.4</ele><time>2016-05-28T16:13:52Z</time></trkpt>
<trkpt lat="46.20566" lon="7.44032"><ele>1555.4</ele><time>2016-05-28T16:13:56Z</time></trkpt>
<trkpt lat="46.20569" lon="7.44034"><ele>1555.4</ele><time>2016-05-28T16:13:57Z</time></trkpt>
<trkpt lat="46.20572" lon="7.44018"><ele>1550.4</ele><time>2016-05-28T16:14:03Z</time></trkpt>
<trkpt lat="46.2057" lon="7.44014"><ele>1549.6</ele><time>2016-05-28T16:14:04Z</time></trkpt>
<trkpt lat="46.20565" lon="7.44001"><ele>1547.6</ele><time>2016-05-28T16:14:07Z</time></trkpt>
<trkpt lat="46.2056" lon="7.43989"><ele>1544.6</ele><time>2016-05-28T16:14:10Z</time></trkpt>
<trkpt lat="46.20559" lon="7.43986"><ele>1543.6</ele><time>2016-05-28T16:14:11Z</time></trkpt>
<trkpt lat="46.20558" lon="7.43977"><ele>1540.4</ele><time>2016-05-28T16:14:15Z</time></trkpt>
<trkpt lat="46.20562" lon="7.43974"><ele>1538.6</ele><time>2016-05-28T16:14:17Z</time></trkpt>
<trkpt lat="46.20564" lon="7.43972"><ele>1537.8</ele><time>2016-05-28T16:14:18Z</time></trkpt>
<trkpt lat="46.20568" lon="7.43969"><ele>1535.4</ele><time>2016-05-28T16:14:20Z</time></trkpt>
<trkpt lat="46.20574" lon="7.43962"><ele>1532.2</ele><time>2016-05-28T16:14:23Z</time></trkpt>
<trkpt lat="46.20581" lon="7.4396"><ele>1529.8</ele><time>2016-05-28T16:14:26Z</time></trkpt>
<trkpt lat="46.20583" lon="7.43959"><ele>1529.4</ele><time>2016-05-28T16:14:27Z</time></trkpt>
<trkpt lat="46.20591" lon="7.43957"><ele>1528.4</ele><time>2016-05-28T16:14:30Z</time></trkpt>
<trkpt lat="46.20609" lon="7.43955"><ele>1523.8</ele><time>2016-05-28T16:14:36Z</time></trkpt>
<trkpt lat="46.20624" lon="7.43954"><ele>1518</ele><time>2016-05-28T16:14:42Z</time></trkpt>
<trkpt lat="46.20633" lon="7.43956"><ele>1513</ele><time>2016-05-28T16:14:46Z</time></trkpt>
<trkpt lat="46.20657" lon="7.43967"><ele>1505.2</ele><time>2016-05-28T16:14:54Z</time></trkpt>
<trkpt lat="46.20664" lon="7.43972"><ele>1500.8</ele><time>2016-05-28T16:14:58Z</time></trkpt>
<trkpt lat="46.20665" lon="7.43964"><ele>1498.6</ele><time>2016-05-28T16:15:02Z</time></trkpt>
<trkpt lat="46.20664" lon="7.43963"><ele>1497.6</ele><time>2016-05-28T16:15:03Z</time></trkpt>
<trkpt lat="46.20667" lon="7.43958"><ele>1496.8</ele><time>2016-05-28T16:15:10Z</time></trkpt>
<trkpt lat="46.20671" lon="7.43958"><ele>1497.4</ele><time>2016-05-28T16:15:24Z</time></trkpt>
</trkseg></trk></gpx>